Time;durP1;ratioP1;P1;durP2;ratioP2;P2;SDS_P1;SDS_P2;PMS_P1;PMS_P2;Temp;Humidity;BMP_temperature;BMP_pressure;BME280_temperature;BME280_humidity;BME280_pressure;Samples;Min_cycle;Max_cycle;Signal;HPM_P1;HPM_P2
2022/08/19 00:00:01;;;;;;;6.57;3.47;;;;;;;;;;7386009;19;20011;-63
2022/08/19 00:02:26;;;;;;;3.40;3.10;;;;;;;;;;7386196;19;20021;-61
2022/08/19 00:04:54;;;;;;;3.78;3.25;;;;;;;;;;7384533;19;20444;-61
2022/08/19 00:07:20;;;;;;;3.90;3.47;;;;;;;;;;7383285;19;20018;-63
2022/08/19 00:09:45;;;;;;;3.28;2.83;;;;;;;;;;7376343;19;20503;-61
2022/08/19 00:12:11;;;;;;;3.65;3.10;;;;;;;;;;7383286;19;20007;-57
2022/08/19 00:14:37;;;;;;;3.28;2.90;;;;;;;;;;7386810;19;20003;-61
2022/08/19 00:17:06;;;;;;;3.58;2.80;;;;;;;;;;7383948;19;19998;-60
2022/08/19 00:19:32;;;;;;;4.75;2.83;;;;;;;;;;7383543;19;20383;-63
2022/08/19 00:21:57;;;;;;;4.13;2.95;;;;;;;;;;7381799;19;20108;-64
2022/08/19 00:24:22;;;;;;;3.10;2.67;;;;;;;;;;7382321;19;20033;-62
2022/08/19 00:26:48;;;;;;;2.78;2.50;;;;;;;;;;7385388;19;19995;-62
2022/08/19 00:29:16;;;;;;;3.80;3.00;;;;;;;;;;7382126;19;20022;-62
2022/08/19 00:31:43;;;;;;;3.20;2.90;;;;;;;;;;7384208;19;19995;-63
2022/08/19 00:34:11;;;;;;;2.50;2.30;;;;;;;;;;7381865;19;20499;-59
2022/08/19 00:36:37;;;;;;;2.80;2.10;;;;;;;;;;7381949;19;20003;-60
2022/08/19 00:39:03;;;;;;;3.75;2.72;;;;;;;;;;7376530;19;20459;-62
2022/08/19 00:41:28;;;;;;;3.25;2.33;;;;;;;;;;7384507;19;20010;-61
2022/08/19 00:43:59;;;;;;;3.60;2.70;;;;;;;;;;7384481;19;20015;-61
2022/08/19 00:46:26;;;;;;;2.97;2.67;;;;;;;;;;7382666;19;20027;-62
2022/08/19 00:48:51;;;;;;;2.92;2.60;;;;;;;;;;7379858;19;20377;-59
2022/08/19 00:51:16;;;;;;;3.22;2.90;;;;;;;;;;7382873;19;20002;-60
2022/08/19 00:53:43;;;;;;;3.03;2.70;;;;;;;;;;7381340;19;20020;-61
2022/08/19 00:56:08;;;;;;;3.13;2.83;;;;;;;;;;7388394;19;20028;-62
2022/08/19 00:58:35;;;;;;;3.67;2.90;;;;;;;;;;7390781;19;20105;-62
2022/08/19 01:01:03;;;;;;;3.42;2.88;;;;;;;;;;7385680;19;20440;-61
2022/08/19 01:03:28;;;;;;;4.07;3.10;;;;;;;;;;7391102;19;20020;-61
2022/08/19 01:05:55;;;;;;;3.85;3.17;;;;;;;;;;7390719;19;20014;-62
2022/08/19 01:08:20;;;;;;;3.53;3.17;;;;;;;;;;7389943;19;20014;-61
2022/08/19 01:10:49;;;;;;;3.40;3.10;;;;;;;;;;7390926;19;20006;-61
2022/08/19 01:13:18;;;;;;;4.28;2.80;;;;;;;;;;7386414;19;20479;-60
2022/08/19 01:15:53;;;;;;;5.32;2.33;;;;;;;;;;7389408;19;19994;-62
2022/08/19 01:18:20;;;;;;;3.03;2.47;;;;;;;;;;7389356;19;20014;-61
2022/08/19 01:20:46;;;;;;;2.63;2.30;;;;;;;;;;7385153;19;20333;-59
2022/08/19 01:23:12;;;;;;;2.95;2.50;;;;;;;;;;7391441;19;20023;-59
2022/08/19 01:25:49;;;;;;;2.40;2.10;;;;;;;;;;7390332;19;20011;-62
2022/08/19 01:28:25;;;;;;;2.20;2.00;;;;;;;;;;7387015;19;20023;-59
2022/08/19 01:30:51;;;;;;;2.55;1.90;;;;;;;;;;7392341;19;20079;-62
2022/08/19 01:33:17;;;;;;;2.63;2.10;;;;;;;;;;7386515;19;20042;-60
2022/08/19 01:35:42;;;;;;;2.10;1.88;;;;;;;;;;7389859;19;20062;-64
2022/08/19 01:38:21;;;;;;;3.83;1.73;;;;;;;;;;7388205;19;20364;-63
2022/08/19 01:40:46;;;;;;;1.98;1.77;;;;;;;;;;7388392;19;20337;-61
2022/08/19 01:43:11;;;;;;;3.17;1.70;;;;;;;;;;7390228;19;20094;-59
2022/08/19 01:45:39;;;;;;;1.95;1.52;;;;;;;;;;7392103;19;20355;-59
2022/08/19 01:48:07;;;;;;;1.75;1.60;;;;;;;;;;7388143;19;20002;-62
2022/08/19 01:50:33;;;;;;;2.00;1.55;;;;;;;;;;7388483;19;20027;-60
2022/08/19 01:53:00;;;;;;;1.50;1.40;;;;;;;;;;7390533;19;20010;-62
2022/08/19 01:55:25;;;;;;;1.40;1.30;;;;;;;;;;7391057;19;20002;-60
2022/08/19 01:57:57;;;;;;;1.50;1.40;;;;;;;;;;7389881;19;20294;-60
2022/08/19 02:00:25;;;;;;;2.00;1.40;;;;;;;;;;7389675;19;20086;-62
2022/08/19 02:02:50;;;;;;;1.65;1.40;;;;;;;;;;7386807;19;20011;-62
2022/08/19 02:05:18;;;;;;;3.50;1.55;;;;;;;;;;7383482;19;20002;-60
2022/08/19 02:07:44;;;;;;;1.25;1.15;;;;;;;;;;7384464;19;20003;-62
2022/08/19 02:10:14;;;;;;;1.20;1.10;;;;;;;;;;7381381;19;20035;-60
2022/08/19 02:12:39;;;;;;;1.02;1.00;;;;;;;;;;7389713;19;20014;-62
2022/08/19 02:15:07;;;;;;;1.10;1.00;;;;;;;;;;7387410;19;19998;-61
2022/08/19 02:17:33;;;;;;;1.63;1.00;;;;;;;;;;7382719;19;20010;-63
2022/08/19 02:19:58;;;;;;;3.13;1.10;;;;;;;;;;7382594;19;20021;-59
2022/08/19 02:22:25;;;;;;;1.77;1.25;;;;;;;;;;7390084;19;20345;-62
2022/08/19 02:24:51;;;;;;;2.47;1.17;;;;;;;;;;7390581;19;19998;-62
2022/08/19 02:27:17;;;;;;;1.13;1.02;;;;;;;;;;7388677;19;20539;-60
2022/08/19 02:29:43;;;;;;;1.25;1.15;;;;;;;;;;7386536;19;19999;-61
2022/08/19 02:32:08;;;;;;;1.50;1.40;;;;;;;;;;7384652;19;20015;-61
2022/08/19 02:34:34;;;;;;;2.25;1.45;;;;;;;;;;7386641;19;20010;-60
2022/08/19 02:36:59;;;;;;;1.60;1.50;;;;;;;;;;7392080;19;20401;-60
2022/08/19 02:39:26;;;;;;;2.60;1.75;;;;;;;;;;7385979;19;20002;-57
2022/08/19 02:41:51;;;;;;;2.33;1.80;;;;;;;;;;7392064;19;20020;-60
2022/08/19 02:44:17;;;;;;;1.83;1.60;;;;;;;;;;7388180;19;20349;-60
2022/08/19 02:46:45;;;;;;;2.63;1.63;;;;;;;;;;7389366;19;20011;-63
2022/08/19 02:49:11;;;;;;;2.95;1.80;;;;;;;;;;7385507;19;20015;-61
2022/08/19 02:51:41;;;;;;;3.10;2.15;;;;;;;;;;7390298;19;20018;-60
2022/08/19 02:54:09;;;;;;;2.38;1.95;;;;;;;;;;7382658;19;19998;-61
2022/08/19 02:56:35;;;;;;;2.25;2.00;;;;;;;;;;7386653;19;20021;-59
2022/08/19 02:59:01;;;;;;;2.83;2.35;;;;;;;;;;7383801;19;20002;-63
2022/08/19 03:01:31;;;;;;;2.63;1.90;;;;;;;;;;7388434;19;20070;-61
2022/08/19 03:04:00;;;;;;;2.65;2.40;;;;;;;;;;7391094;19;20008;-61
2022/08/19 03:06:27;;;;;;;3.42;2.58;;;;;;;;;;7390980;19;20520;-60
2022/08/19 03:08:53;;;;;;;3.75;2.75;;;;;;;;;;7388742;19;20015;-60
2022/08/19 03:11:28;;;;;;;4.13;2.65;;;;;;;;;;7385109;19;20026;-62
2022/08/19 03:13:54;;;;;;;3.08;2.67;;;;;;;;;;7383696;19;20011;-62
2022/08/19 03:16:21;;;;;;;4.32;2.67;;;;;;;;;;7388161;19;20491;-62
2022/08/19 03:18:46;;;;;;;3.38;2.60;;;;;;;;;;7376899;19;20003;-62
2022/08/19 03:21:17;;;;;;;2.88;2.60;;;;;;;;;;7380320;19;20045;-62
2022/08/19 03:23:43;;;;;;;2.97;2.58;;;;;;;;;;7384793;19;20783;-63
2022/08/19 03:26:09;;;;;;;2.88;2.58;;;;;;;;;;7384433;19;20022;-61
2022/08/19 03:28:34;;;;;;;2.83;2.10;;;;;;;;;;7384486;19;20106;-62
2022/08/19 03:31:07;;;;;;;3.08;2.35;;;;;;;;;;7385267;19;20013;-61
2022/08/19 03:33:35;;;;;;;3.67;2.97;;;;;;;;;;7382323;19;20085;-63
2022/08/19 03:36:05;;;;;;;3.00;2.70;;;;;;;;;;7387413;19;20032;-59
2022/08/19 03:38:32;;;;;;;7.68;2.97;;;;;;;;;;7384739;19;20011;-62
2022/08/19 03:40:57;;;;;;;3.72;2.03;;;;;;;;;;7386956;19;19999;-62
2022/08/19 03:43:23;;;;;;;4.32;2.85;;;;;;;;;;7382596;19;20493;-62
2022/08/19 03:45:49;;;;;;;4.05;2.70;;;;;;;;;;7387237;19;19991;-62
2022/08/19 03:48:16;;;;;;;4.05;2.97;;;;;;;;;;7383728;19;20318;-61
2022/08/19 03:50:42;;;;;;;4.55;2.97;;;;;;;;;;7384184;19;20074;-60
2022/08/19 03:53:08;;;;;;;3.78;3.28;;;;;;;;;;7388011;19;20031;-62
2022/08/19 03:55:38;;;;;;;3.17;2.88;;;;;;;;;;7384121;19;20044;-62
2022/08/19 03:58:03;;;;;;;6.55;4.07;;;;;;;;;;7385101;19;20017;-61
2022/08/19 04:00:29;;;;;;;4.78;3.58;;;;;;;;;;7383108;19;20011;-62
2022/08/19 04:02:54;;;;;;;4.97;3.30;;;;;;;;;;7380430;19;20017;-61
2022/08/19 04:05:20;;;;;;;4.63;3.60;;;;;;;;;;7380471;19;20049;-62
2022/08/19 04:07:45;;;;;;;5.47;3.47;;;;;;;;;;7381917;19;20039;-62
2022/08/19 04:10:11;;;;;;;3.60;3.28;;;;;;;;;;7384516;19;20002;-61
2022/08/19 04:12:36;;;;;;;3.17;2.72;;;;;;;;;;7387048;19;20066;-60
2022/08/19 04:15:02;;;;;;;4.78;3.38;;;;;;;;;;7386539;19;21194;-63
2022/08/19 04:17:28;;;;;;;4.15;3.42;;;;;;;;;;7382641;19;20101;-62
2022/08/19 04:19:53;;;;;;;4.78;3.35;;;;;;;;;;7384594;19;20064;-61
2022/08/19 04:22:18;;;;;;;3.58;3.10;;;;;;;;;;7382528;19;20508;-60
2022/08/19 04:24:44;;;;;;;3.83;3.40;;;;;;;;;;7380870;19;20492;-62
2022/08/19 04:27:09;;;;;;;4.50;3.75;;;;;;;;;;7384164;19;20523;-61
2022/08/19 04:29:34;;;;;;;4.80;3.58;;;;;;;;;;7389361;19;20036;-62
2022/08/19 04:32:00;;;;;;;3.72;3.00;;;;;;;;;;7392036;19;20010;-60
2022/08/19 04:34:28;;;;;;;3.78;3.22;;;;;;;;;;7393333;19;20015;-61
2022/08/19 04:36:56;;;;;;;4.78;3.53;;;;;;;;;;7393301;19;20429;-57
2022/08/19 04:42:38;;;;;;;4.88;3.47;;;;;;;;;;7391652;19;20461;-62
2022/08/19 04:44:58;;;;;;;6.75;4.38;;;;;;;;;;7395914;19;20021;-59
2022/08/19 04:47:24;;;;;;;8.43;4.22;;;;;;;;;;7386651;19;20666;-62
2022/08/19 04:49:49;;;;;;;4.97;4.00;;;;;;;;;;7389473;19;20016;-62
2022/08/19 04:52:15;;;;;;;5.05;4.13;;;;;;;;;;7381717;19;20010;-61
2022/08/19 04:54:40;;;;;;;4.50;3.40;;;;;;;;;;7367290;19;20030;-68
2022/08/19 04:57:09;;;;;;;6.65;4.38;;;;;;;;;;7390847;19;19998;-61
2022/08/19 04:59:37;;;;;;;7.32;5.13;;;;;;;;;;7378288;19;20018;-60
2022/08/19 05:02:03;;;;;;;5.85;4.32;;;;;;;;;;7384785;19;20014;-61
2022/08/19 05:04:30;;;;;;;5.35;4.38;;;;;;;;;;7386890;19;20048;-60
2022/08/19 05:06:56;;;;;;;6.18;4.30;;;;;;;;;;7390775;19;20017;-59
2022/08/19 05:09:21;;;;;;;6.68;5.30;;;;;;;;;;7386960;19;20006;-61
2022/08/19 05:11:47;;;;;;;5.75;5.00;;;;;;;;;;7387645;19;20023;-59
2022/08/19 05:14:13;;;;;;;7.28;5.25;;;;;;;;;;7392057;19;20066;-60
2022/08/19 05:16:39;;;;;;;7.13;5.63;;;;;;;;;;7376873;19;20380;-60
2022/08/19 05:24:35;;;;;;;7.35;5.55;;;;;;;;;;7382393;19;20031;-60
2022/08/19 05:27:02;;;;;;;5.40;4.50;;;;;;;;;;7390405;19;20091;-61
2022/08/19 05:29:29;;;;;;;6.90;5.25;;;;;;;;;;7380041;19;20135;-62
2022/08/19 05:31:55;;;;;;;8.80;4.93;;;;;;;;;;7387756;19;20078;-61
2022/08/19 05:34:22;;;;;;;7.03;5.20;;;;;;;;;;7389199;19;20027;-61
2022/08/19 05:36:49;;;;;;;7.40;6.20;;;;;;;;;;7389602;19;19999;-61
2022/08/19 05:39:19;;;;;;;7.15;5.60;;;;;;;;;;7377235;19;20011;-62
2022/08/19 05:41:48;;;;;;;8.32;6.13;;;;;;;;;;7380379;19;20475;-62
2022/08/19 05:44:14;;;;;;;7.57;6.32;;;;;;;;;;7384242;19;20038;-61
2022/08/19 05:46:43;;;;;;;11.65;6.57;;;;;;;;;;7389298;19;20006;-61
2022/08/19 05:49:08;;;;;;;7.10;6.07;;;;;;;;;;7386982;19;20015;-61
2022/08/19 05:51:37;;;;;;;7.80;6.28;;;;;;;;;;7390858;19;20031;-61
2022/08/19 05:54:04;;;;;;;7.38;6.22;;;;;;;;;;7392090;19;20039;-61
2022/08/19 05:56:30;;;;;;;8.65;6.55;;;;;;;;;;7386401;19;20014;-61
2022/08/19 05:58:56;;;;;;;6.30;5.50;;;;;;;;;;7375475;19;20014;-61
2022/08/19 06:01:22;;;;;;;10.18;7.18;;;;;;;;;;7383749;19;20011;-61
2022/08/19 06:03:47;;;;;;;9.55;6.82;;;;;;;;;;7391378;19;20083;-61
2022/08/19 06:06:15;;;;;;;9.18;6.97;;;;;;;;;;7386241;19;20742;-61
2022/08/19 06:08:42;;;;;;;9.13;6.40;;;;;;;;;;7380655;19;20444;-60
2022/08/19 06:11:20;;;;;;;11.85;6.72;;;;;;;;;;7389040;19;20417;-61
2022/08/19 06:13:50;;;;;;;7.70;6.18;;;;;;;;;;7389013;19;20006;-61
2022/08/19 06:16:20;;;;;;;11.15;6.88;;;;;;;;;;7390951;19;20006;-62
2022/08/19 06:18:46;;;;;;;9.55;7.50;;;;;;;;;;7386439;19;20531;-61
2022/08/19 06:21:12;;;;;;;9.55;7.05;;;;;;;;;;7386435;19;20018;-61
2022/08/19 06:23:38;;;;;;;9.55;7.18;;;;;;;;;;7390360;19;20014;-62
2022/08/19 06:26:04;;;;;;;9.50;6.97;;;;;;;;;;7383364;19;20011;-61
2022/08/19 06:28:29;;;;;;;10.82;7.65;;;;;;;;;;7378854;19;20512;-61
2022/08/19 06:30:54;;;;;;;12.15;8.77;;;;;;;;;;7377098;19;20002;-61
2022/08/19 06:33:20;;;;;;;9.50;7.25;;;;;;;;;;7384840;19;20340;-62
2022/08/19 06:35:45;;;;;;;6.65;5.95;;;;;;;;;;7386747;19;20002;-61
2022/08/19 06:38:10;;;;;;;11.07;7.25;;;;;;;;;;7385486;19;20035;-61
2022/08/19 06:40:37;;;;;;;11.70;8.13;;;;;;;;;;7381611;19;20027;-61
2022/08/19 06:43:02;;;;;;;9.63;7.68;;;;;;;;;;7368716;19;20552;-61
2022/08/19 06:45:28;;;;;;;9.52;7.13;;;;;;;;;;7386099;19;20003;-60
2022/08/19 06:47:55;;;;;;;11.55;7.28;;;;;;;;;;7381602;19;20035;-61
2022/08/19 06:50:21;;;;;;;12.05;8.00;;;;;;;;;;7384970;19;20062;-61
2022/08/19 06:52:47;;;;;;;11.75;8.25;;;;;;;;;;7386742;19;20018;-61
2022/08/19 06:55:12;;;;;;;12.05;9.10;;;;;;;;;;7385960;19;19994;-60
2022/08/19 06:57:38;;;;;;;11.02;8.02;;;;;;;;;;7382031;19;20511;-63
2022/08/19 07:00:10;;;;;;;14.60;9.00;;;;;;;;;;7385763;19;20351;-62
2022/08/19 07:02:37;;;;;;;9.43;7.50;;;;;;;;;;7380390;19;20477;-61
2022/08/19 07:05:03;;;;;;;12.93;8.23;;;;;;;;;;7382957;19;20014;-61
2022/08/19 07:07:28;;;;;;;11.18;8.68;;;;;;;;;;7390351;19;20025;-62
2022/08/19 07:09:54;;;;;;;12.40;8.13;;;;;;;;;;7386456;19;20015;-61
2022/08/19 07:12:19;;;;;;;14.02;8.07;;;;;;;;;;7388680;19;20018;-62
2022/08/19 07:14:45;;;;;;;10.32;7.68;;;;;;;;;;7383824;19;20003;-62
2022/08/19 07:17:11;;;;;;;13.02;7.70;;;;;;;;;;7386243;19;20018;-62
2022/08/19 07:19:38;;;;;;;10.98;8.15;;;;;;;;;;7385599;19;20031;-60
2022/08/19 07:22:06;;;;;;;15.35;9.15;;;;;;;;;;7386839;19;20477;-62
2022/08/19 07:24:32;;;;;;;12.73;8.35;;;;;;;;;;7384926;19;20011;-62
2022/08/19 07:27:02;;;;;;;10.77;8.35;;;;;;;;;;7383128;19;20362;-61
2022/08/19 07:29:30;;;;;;;12.85;8.95;;;;;;;;;;7385436;19;20026;-61
2022/08/19 07:31:58;;;;;;;15.23;9.30;;;;;;;;;;7379112;19;20473;-62
2022/08/19 07:34:24;;;;;;;11.45;8.45;;;;;;;;;;7381768;19;20015;-61
2022/08/19 07:36:51;;;;;;;13.48;9.68;;;;;;;;;;7384753;19;20021;-62
2022/08/19 07:39:21;;;;;;;12.95;9.55;;;;;;;;;;7383708;19;20014;-62
2022/08/19 07:41:47;;;;;;;13.00;9.38;;;;;;;;;;7383867;19;20086;-62
2022/08/19 07:44:14;;;;;;;13.20;10.15;;;;;;;;;;7383221;19;20019;-61
2022/08/19 07:46:44;;;;;;;11.95;9.07;;;;;;;;;;7386577;19;20397;-62
2022/08/19 07:49:14;;;;;;;11.50;7.95;;;;;;;;;;7385073;19;19994;-62
2022/08/19 07:51:39;;;;;;;11.93;9.35;;;;;;;;;;7386936;19;20039;-62
2022/08/19 07:54:05;;;;;;;13.50;9.60;;;;;;;;;;7385619;19;20610;-61
2022/08/19 07:56:30;;;;;;;13.05;9.20;;;;;;;;;;7384899;19;20018;-62
2022/08/19 07:58:55;;;;;;;16.83;9.02;;;;;;;;;;7383007;19;20432;-62
2022/08/19 08:01:25;;;;;;;13.45;10.07;;;;;;;;;;7378637;19;20545;-60
2022/08/19 08:09:28;;;;;;;15.97;10.13;;;;;;;;;;7394877;19;20477;-61
2022/08/19 08:11:58;;;;;;;15.85;10.15;;;;;;;;;;7392783;19;20270;-61
2022/08/19 08:14:27;;;;;;;13.57;10.65;;;;;;;;;;7391039;19;20368;-61
2022/08/19 08:16:53;;;;;;;18.35;11.05;;;;;;;;;;7395405;19;20477;-62
2022/08/19 08:19:21;;;;;;;14.93;11.10;;;;;;;;;;7390184;19;20570;-62
2022/08/19 08:21:48;;;;;;;16.02;10.82;;;;;;;;;;7389487;19;20015;-62
2022/08/19 08:24:14;;;;;;;18.98;10.88;;;;;;;;;;7391207;19;20010;-59
2022/08/19 08:26:40;;;;;;;16.05;10.88;;;;;;;;;;7394740;19;20504;-61
2022/08/19 08:29:07;;;;;;;17.90;12.57;;;;;;;;;;7391921;19;20290;-62
2022/08/19 08:31:33;;;;;;;16.85;11.10;;;;;;;;;;7394271;19;20010;-62
2022/08/19 08:33:59;;;;;;;12.13;8.63;;;;;;;;;;7386100;19;20077;-63
2022/08/19 08:36:25;;;;;;;14.50;10.40;;;;;;;;;;7393000;19;20381;-62
2022/08/19 08:38:51;;;;;;;15.95;10.43;;;;;;;;;;7387698;19;20372;-62
2022/08/19 08:41:53;;;;;;;16.73;10.63;;;;;;;;;;7390175;19;20018;-61
2022/08/19 08:44:31;;;;;;;16.13;11.70;;;;;;;;;;7390980;19;20010;-62
2022/08/19 08:47:01;;;;;;;16.63;11.15;;;;;;;;;;7389986;19;20018;-62
2022/08/19 08:49:51;;;;;;;18.70;11.55;;;;;;;;;;7387546;19;20025;-62
2022/08/19 08:52:28;;;;;;;17.77;10.82;;;;;;;;;;7389205;19;20035;-62
2022/08/19 08:54:57;;;;;;;16.08;11.02;;;;;;;;;;7387944;19;20021;-62
2022/08/19 08:57:39;;;;;;;17.83;11.32;;;;;;;;;;7390621;19;20013;-62
2022/08/19 09:00:14;;;;;;;18.00;11.15;;;;;;;;;;7392046;19;20015;-61
2022/08/19 09:02:39;;;;;;;12.60;8.73;;;;;;;;;;7394977;19;20484;-62
2022/08/19 09:05:05;;;;;;;20.88;11.48;;;;;;;;;;7390397;19;20023;-62
2022/08/19 09:08:29;;;;;;;17.40;12.15;;;;;;;;;;7394439;19;20029;-62
2022/08/19 09:10:56;;;;;;;16.77;12.00;;;;;;;;;;7389059;19;20049;-62
2022/08/19 09:13:40;;;;;;;16.83;10.60;;;;;;;;;;7385552;19;20924;-59
2022/08/19 09:16:15;;;;;;;15.45;10.73;;;;;;;;;;7392454;19;20444;-61
2022/08/19 09:18:41;;;;;;;;;;;;;;;;;;7389256;19;20054;-61
2022/08/19 09:21:08;;;;;;;15.52;10.63;;;;;;;;;;7393446;19;20495;-63
2022/08/19 09:23:34;;;;;;;16.88;11.40;;;;;;;;;;7391402;19;19998;-60
2022/08/19 09:25:59;;;;;;;15.60;10.30;;;;;;;;;;7389812;19;20032;-59
2022/08/19 09:28:25;;;;;;;14.15;10.13;;;;;;;;;;7392562;19;20011;-59
2022/08/19 09:30:51;;;;;;;17.35;12.23;;;;;;;;;;7394650;19;19995;-57
2022/08/19 09:33:17;;;;;;;16.38;11.50;;;;;;;;;;7390953;19;20024;-62
2022/08/19 09:35:42;;;;;;;15.93;11.57;;;;;;;;;;7390571;19;20018;-60
2022/08/19 09:38:08;;;;;;;16.75;10.48;;;;;;;;;;7392615;19;20022;-60
2022/08/19 09:40:33;;;;;;;15.45;10.52;;;;;;;;;;7388237;19;20302;-60
2022/08/19 09:43:02;;;;;;;14.55;11.13;;;;;;;;;;7393924;19;20003;-61
2022/08/19 09:45:28;;;;;;;15.50;11.30;;;;;;;;;;7392905;19;20012;-62
2022/08/19 09:47:54;;;;;;;15.02;10.23;;;;;;;;;;7389405;19;20118;-63
2022/08/19 09:50:19;;;;;;;14.57;11.00;;;;;;;;;;7388199;19;20034;-60
2022/08/19 09:52:45;;;;;;;14.07;10.90;;;;;;;;;;7392890;19;20014;-60
2022/08/19 09:55:11;;;;;;;13.38;9.98;;;;;;;;;;7392581;19;20002;-60
2022/08/19 09:57:38;;;;;;;15.38;10.90;;;;;;;;;;7389375;19;20005;-63
2022/08/19 10:00:07;;;;;;;14.85;10.63;;;;;;;;;;7386988;19;19999;-62
2022/08/19 10:02:33;;;;;;;13.05;10.88;;;;;;;;;;7388873;19;20006;-62
2022/08/19 10:07:42;;;;;;;13.77;9.52;;;;;;;;;;7391229;19;20030;-61
2022/08/19 10:10:09;;;;;;;14.93;9.45;;;;;;;;;;7387128;19;20011;-61
2022/08/19 10:12:35;;;;;;;13.70;8.13;;;;;;;;;;7393274;19;20003;-60
2022/08/19 10:15:01;;;;;;;11.52;8.50;;;;;;;;;;7388675;19;20005;-61
2022/08/19 10:17:26;;;;;;;10.88;9.00;;;;;;;;;;7388379;19;20078;-58
2022/08/19 10:19:52;;;;;;;11.07;8.50;;;;;;;;;;7385167;19;20706;-60
2022/08/19 10:22:18;;;;;;;13.18;9.75;;;;;;;;;;7388084;19;20021;-62
2022/08/19 10:24:45;;;;;;;10.20;7.63;;;;;;;;;;7390975;19;20018;-59
2022/08/19 10:27:12;;;;;;;12.13;8.15;;;;;;;;;;7387369;19;20014;-61
2022/08/19 10:29:38;;;;;;;10.05;8.13;;;;;;;;;;7389404;19;20011;-62
2022/08/19 10:32:07;;;;;;;10.43;7.55;;;;;;;;;;7388279;19;19998;-62
2022/08/19 10:34:33;;;;;;;10.60;8.15;;;;;;;;;;7388444;19;20021;-61
2022/08/19 10:37:00;;;;;;;12.13;8.60;;;;;;;;;;7390840;19;20010;-61
2022/08/19 10:39:28;;;;;;;10.13;7.53;;;;;;;;;;7387814;19;20003;-60
2022/08/19 10:41:53;;;;;;;10.07;7.72;;;;;;;;;;7384354;19;20103;-62
2022/08/19 10:44:19;;;;;;;9.80;7.00;;;;;;;;;;7389915;19;20006;-61
2022/08/19 10:46:46;;;;;;;12.60;7.88;;;;;;;;;;7392442;19;20040;-60
2022/08/19 10:49:12;;;;;;;9.95;7.80;;;;;;;;;;7385755;19;20007;-60
2022/08/19 10:56:50;;;;;;;;;;;;;;;;;;7392177;19;20017;-61
2022/08/19 10:57:09;;;;;;;5.93;4.97;;;;;;;;;;7388127;19;19949;-59
2022/08/19 10:59:35;;;;;;;6.03;4.40;;;;;;;;;;7388685;19;19995;-61
2022/08/19 11:02:04;;;;;;;5.25;3.42;;;;;;;;;;7386754;19;19999;-60
2022/08/19 11:04:29;;;;;;;4.22;3.60;;;;;;;;;;7391411;19;20336;-61
2022/08/19 11:06:55;;;;;;;3.47;3.05;;;;;;;;;;7387927;19;20017;-62
2022/08/19 11:09:27;;;;;;;4.43;3.03;;;;;;;;;;7387025;19;20156;-62
2022/08/19 11:11:53;;;;;;;3.03;2.47;;;;;;;;;;7388410;19;20515;-61
2022/08/19 11:14:20;;;;;;;3.00;2.25;;;;;;;;;;7386314;19;20011;-61
2022/08/19 11:16:50;;;;;;;2.17;1.63;;;;;;;;;;7389159;19;19999;-61
2022/08/19 11:19:18;;;;;;;1.90;1.70;;;;;;;;;;7383039;19;20006;-62
2022/08/19 11:21:46;;;;;;;1.35;1.25;;;;;;;;;;7385591;19;20002;-61
2022/08/19 11:24:23;;;;;;;1.85;1.20;;;;;;;;;;7383895;19;20039;-62
2022/08/19 11:26:50;;;;;;;1.20;1.10;;;;;;;;;;7382477;19;20468;-62
2022/08/19 11:29:18;;;;;;;1.63;1.30;;;;;;;;;;7384546;19;20014;-62
2022/08/19 11:31:47;;;;;;;1.48;1.15;;;;;;;;;;7387954;19;20011;-62
2022/08/19 11:34:16;;;;;;;1.08;0.98;;;;;;;;;;7382472;19;20006;-62
2022/08/19 11:36:44;;;;;;;1.17;1.10;;;;;;;;;;7382093;19;20014;-62
2022/08/19 11:39:12;;;;;;;1.75;1.20;;;;;;;;;;7378425;19;20464;-62
2022/08/19 11:41:37;;;;;;;1.23;1.00;;;;;;;;;;7387062;19;20025;-61
2022/08/19 11:44:04;;;;;;;1.58;1.00;;;;;;;;;;7385777;19;20464;-62
2022/08/19 11:46:30;;;;;;;2.00;1.40;;;;;;;;;;7386247;19;20014;-62
2022/08/19 11:49:00;;;;;;;1.65;1.40;;;;;;;;;;7377604;19;20475;-62
2022/08/19 11:51:27;;;;;;;1.73;1.30;;;;;;;;;;7386294;19;20318;-62
2022/08/19 11:53:55;;;;;;;1.25;0.93;;;;;;;;;;7384054;19;20035;-62
2022/08/19 11:56:21;;;;;;;2.67;1.25;;;;;;;;;;7384650;19;20007;-62
2022/08/19 11:58:47;;;;;;;1.30;1.20;;;;;;;;;;7377753;19;20019;-62
2022/08/19 12:01:16;;;;;;;1.02;1.00;;;;;;;;;;7381111;19;20051;-62
2022/08/19 12:03:43;;;;;;;1.05;0.90;;;;;;;;;;7384444;19;20006;-62
2022/08/19 12:06:13;;;;;;;2.75;0.93;;;;;;;;;;7379293;19;20010;-63
2022/08/19 12:08:38;;;;;;;0.70;0.70;;;;;;;;;;7382971;19;20010;-63
2022/08/19 12:11:07;;;;;;;0.90;0.90;;;;;;;;;;7383676;19;20074;-63
2022/08/19 12:13:34;;;;;;;0.85;0.80;;;;;;;;;;7382078;19;20086;-63
2022/08/19 12:16:00;;;;;;;0.95;0.80;;;;;;;;;;7379187;19;20014;-63
2022/08/19 12:18:25;;;;;;;1.30;1.02;;;;;;;;;;7385721;19;20010;-63
2022/08/19 12:20:56;;;;;;;1.30;0.98;;;;;;;;;;7385749;19;20021;-62
2022/08/19 12:23:22;;;;;;;1.38;1.13;;;;;;;;;;7383217;19;20453;-63
2022/08/19 12:25:51;;;;;;;17.45;1.00;;;;;;;;;;7383840;19;20010;-63
2022/08/19 12:28:19;;;;;;;1.23;1.13;;;;;;;;;;7381652;19;20022;-63
2022/08/19 12:30:45;;;;;;;2.20;1.10;;;;;;;;;;7380796;19;20506;-63
2022/08/19 12:33:11;;;;;;;1.55;1.45;;;;;;;;;;7379976;19;20089;-63
2022/08/19 12:35:43;;;;;;;2.20;2.00;;;;;;;;;;7383712;19;20027;-63
2022/08/19 12:38:09;;;;;;;2.20;2.00;;;;;;;;;;7381835;19;20021;-63
2022/08/19 12:40:34;;;;;;;2.08;1.90;;;;;;;;;;7384530;19;20003;-63
2022/08/19 12:43:00;;;;;;;2.28;2.08;;;;;;;;;;7381043;19;20042;-63
2022/08/19 12:45:25;;;;;;;1.70;1.60;;;;;;;;;;7382907;19;20026;-63
2022/08/19 12:47:53;;;;;;;1.77;1.67;;;;;;;;;;7377796;19;20155;-63
2022/08/19 12:50:21;;;;;;;2.72;2.20;;;;;;;;;;7389311;19;20443;-61
2022/08/19 12:52:47;;;;;;;2.92;2.17;;;;;;;;;;7387155;19;20482;-63
2022/08/19 12:55:13;;;;;;;2.80;2.08;;;;;;;;;;7394145;19;20032;-63
2022/08/19 12:57:40;;;;;;;2.85;2.28;;;;;;;;;;7385235;19;20014;-63
2022/08/19 13:00:10;;;;;;;2.15;1.95;;;;;;;;;;7388681;19;20631;-63
2022/08/19 13:02:36;;;;;;;2.20;1.92;;;;;;;;;;7383582;19;20014;-63
2022/08/19 13:05:03;;;;;;;2.50;2.30;;;;;;;;;;7388288;19;20014;-63
2022/08/19 13:07:30;;;;;;;2.38;2.03;;;;;;;;;;7390654;19;20702;-64
2022/08/19 13:09:55;;;;;;;2.30;1.90;;;;;;;;;;7385440;19;20077;-62
2022/08/19 13:12:21;;;;;;;1.85;1.75;;;;;;;;;;7390654;19;20002;-63
2022/08/19 13:14:49;;;;;;;2.30;1.83;;;;;;;;;;7393485;19;20031;-62
2022/08/19 13:17:15;;;;;;;2.63;2.38;;;;;;;;;;7385802;19;20021;-62
2022/08/19 13:19:41;;;;;;;2.20;1.90;;;;;;;;;;7385448;19;20010;-62
2022/08/19 13:22:06;;;;;;;1.85;1.75;;;;;;;;;;7392913;19;19995;-63
2022/08/19 13:24:32;;;;;;;2.35;1.83;;;;;;;;;;7392551;19;20015;-63
2022/08/19 13:26:59;;;;;;;1.85;1.73;;;;;;;;;;7382947;19;20105;-63
2022/08/19 13:34:52;;;;;;;1.02;1.02;;;;;;;;;;7390679;19;20031;-64
2022/08/19 13:37:40;;;;;;;1.20;0.93;;;;;;;;;;7391147;19;20002;-63
2022/08/19 13:40:03;;;;;;;1.50;1.38;;;;;;;;;;7388580;19;20066;-62
2022/08/19 13:42:29;;;;;;;1.67;1.27;;;;;;;;;;7388651;19;20003;-63
2022/08/19 13:44:55;;;;;;;1.30;1.20;;;;;;;;;;7386127;19;20446;-62
2022/08/19 13:47:20;;;;;;;2.13;1.05;;;;;;;;;;7388551;19;20070;-63
2022/08/19 13:49:46;;;;;;;1.50;1.40;;;;;;;;;;7386606;19;20422;-60
2022/08/19 13:52:11;;;;;;;1.38;1.27;;;;;;;;;;7388811;19;20011;-61
2022/08/19 13:54:36;;;;;;;1.92;1.63;;;;;;;;;;7389442;19;20062;-63
2022/08/19 13:57:02;;;;;;;1.60;1.50;;;;;;;;;;7390742;19;20038;-63
2022/08/19 13:59:27;;;;;;;3.42;2.30;;;;;;;;;;7384411;19;20014;-63
2022/08/19 14:01:58;;;;;;;2.28;1.77;;;;;;;;;;7386461;19;20010;-62
2022/08/19 14:04:23;;;;;;;2.30;2.10;;;;;;;;;;7390551;19;20465;-62
2022/08/19 14:06:48;;;;;;;2.28;2.08;;;;;;;;;;7391623;19;20006;-61
2022/08/19 14:09:14;;;;;;;3.15;2.85;;;;;;;;;;7389430;19;19998;-62
2022/08/19 14:11:39;;;;;;;3.88;3.00;;;;;;;;;;7389326;19;20460;-63
2022/08/19 14:14:04;;;;;;;5.25;3.60;;;;;;;;;;7388671;19;20046;-61
2022/08/19 14:16:30;;;;;;;5.88;4.63;;;;;;;;;;7388437;19;20042;-63
2022/08/19 14:18:55;;;;;;;5.65;4.45;;;;;;;;;;7390131;19;20350;-63
2022/08/19 14:21:23;;;;;;;5.35;4.28;;;;;;;;;;7386683;19;20018;-62
2022/08/19 14:23:49;;;;;;;5.88;4.65;;;;;;;;;;7389356;19;20006;-62
2022/08/19 14:26:17;;;;;;;5.57;4.28;;;;;;;;;;7380892;19;20298;-63
2022/08/19 14:28:43;;;;;;;6.15;5.47;;;;;;;;;;7384465;19;20035;-63
2022/08/19 14:31:10;;;;;;;6.78;5.28;;;;;;;;;;7387718;19;20007;-63
2022/08/19 14:33:36;;;;;;;5.30;4.57;;;;;;;;;;7388471;19;20030;-62
2022/08/19 14:36:02;;;;;;;7.20;4.85;;;;;;;;;;7392967;19;20094;-62
2022/08/19 14:38:31;;;;;;;6.20;4.47;;;;;;;;;;7388605;19;20014;-62
2022/08/19 14:41:05;;;;;;;8.02;5.43;;;;;;;;;;7383827;19;20018;-63
2022/08/19 14:43:30;;;;;;;6.93;5.32;;;;;;;;;;7385056;19;20104;-60
2022/08/19 14:45:56;;;;;;;7.78;5.13;;;;;;;;;;7387909;19;20010;-63
2022/08/19 14:48:22;;;;;;;6.07;4.57;;;;;;;;;;7386213;19;20013;-61
2022/08/19 14:50:47;;;;;;;6.03;4.82;;;;;;;;;;7388841;19;20010;-62
2022/08/19 14:53:12;;;;;;;7.05;5.38;;;;;;;;;;7386321;19;20035;-62
2022/08/19 14:55:41;;;;;;;8.40;5.20;;;;;;;;;;7386820;19;20081;-63
2022/08/19 14:58:08;;;;;;;8.60;5.22;;;;;;;;;;7387891;19;20006;-62
2022/08/19 15:00:33;;;;;;;8.13;5.82;;;;;;;;;;7383507;19;21975;-63
2022/08/19 15:02:58;;;;;;;7.03;5.15;;;;;;;;;;7376084;19;20465;-63